Time;durP1;ratioP1;P1;durP2;ratioP2;P2;SDS_P1;SDS_P2;PMS_P1;PMS_P2;Temp;Humidity;BMP_temperature;BMP_pressure;BME280_temperature;BME280_humidity;BME280_pressure;Samples;Min_cycle;Max_cycle;Signal;HPM_P1;HPM_P2
2023/11/08 00:01:47;;;;;;;4.30;1.63;;;;;;;;;;5057366;28;20024;-57
2023/11/08 00:04:12;;;;;;;2.25;0.80;;;;;;;;;;5060784;28;20070;-58
2023/11/08 00:06:37;;;;;;;3.37;0.93;;;;;;;;;;5054506;28;20025;-58
2023/11/08 00:09:02;;;;;;;1.87;0.60;;;;;;;;;;5054950;28;20063;-57
2023/11/08 00:11:27;;;;;;;5.03;0.80;;;;;;;;;;5060121;28;20033;-58
2023/11/08 00:13:54;;;;;;;3.53;2.67;;;;;;;;;;5075027;28;20933;-59
2023/11/08 00:16:19;;;;;;;6.28;5.78;;;;;;;;;;5071286;28;20019;-57
2023/11/08 00:18:45;;;;;;;1.87;0.50;;;;;;;;;;5076393;28;20103;-59
2023/11/08 00:21:10;;;;;;;2.08;0.57;;;;;;;;;;5068267;28;20033;-58
2023/11/08 00:23:36;;;;;;;3.55;1.85;;;;;;;;;;5063252;28;20005;-57
2023/11/08 00:26:01;;;;;;;1.80;0.60;;;;;;;;;;5065474;28;20112;-58
2023/11/08 00:28:26;;;;;;;2.50;0.60;;;;;;;;;;5065612;28;20048;-58
2023/11/08 00:30:52;;;;;;;1.93;0.50;;;;;;;;;;5056568;28;20021;-58
2023/11/08 00:33:17;;;;;;;2.17;0.70;;;;;;;;;;5057456;28;20036;-58
2023/11/08 00:35:43;;;;;;;3.37;0.80;;;;;;;;;;5054815;28;20025;-57
2023/11/08 00:38:08;;;;;;;2.33;0.60;;;;;;;;;;5053921;28;20604;-57
2023/11/08 00:40:33;;;;;;;6.43;5.87;;;;;;;;;;5053441;28;20029;-60
2023/11/08 00:42:59;;;;;;;9.52;8.68;;;;;;;;;;5066290;28;20028;-57
2023/11/08 00:45:24;;;;;;;2.58;0.50;;;;;;;;;;5064652;28;20028;-59
2023/11/08 00:47:50;;;;;;;2.17;0.53;;;;;;;;;;5059887;28;20028;-59
2023/11/08 00:50:15;;;;;;;2.75;0.65;;;;;;;;;;5062897;28;20048;-58
2023/11/08 00:52:41;;;;;;;2.93;0.70;;;;;;;;;;5061565;28;20041;-58
2023/11/08 00:55:06;;;;;;;2.33;1.38;;;;;;;;;;5052806;28;20021;-59
2023/11/08 00:57:31;;;;;;;2.00;0.60;;;;;;;;;;5053612;28;20079;-63
2023/11/08 00:59:58;;;;;;;3.83;0.67;;;;;;;;;;5056989;28;20083;-59
2023/11/08 01:02:23;;;;;;;3.90;0.77;;;;;;;;;;5054180;28;20032;-59
2023/11/08 01:04:48;;;;;;;4.72;0.80;;;;;;;;;;5061978;28;20021;-57
2023/11/08 01:07:15;;;;;;;3.47;2.13;;;;;;;;;;5059234;28;20546;-56
2023/11/08 01:09:40;;;;;;;1.77;0.55;;;;;;;;;;5061816;28;20131;-58
2023/11/08 01:12:06;;;;;;;1.93;0.50;;;;;;;;;;5058347;28;20033;-57
2023/11/08 01:14:32;;;;;;;2.28;0.68;;;;;;;;;;5057784;28;20078;-59
2023/11/08 01:16:57;;;;;;;2.10;0.60;;;;;;;;;;5058228;28;20176;-59
2023/11/08 01:19:24;;;;;;;3.10;0.70;;;;;;;;;;5054687;28;20306;-58
2023/11/08 01:21:50;;;;;;;4.28;0.60;;;;;;;;;;5056841;28;20028;-58
2023/11/08 01:24:15;;;;;;;3.38;0.70;;;;;;;;;;5071766;28;20099;-59
2023/11/08 01:26:40;;;;;;;3.37;0.60;;;;;;;;;;5055640;28;20063;-58
2023/11/08 01:29:05;;;;;;;4.03;0.90;;;;;;;;;;5051185;28;20013;-58
2023/11/08 01:31:31;;;;;;;2.80;0.80;;;;;;;;;;5063586;28;20026;-57
2023/11/08 01:33:58;;;;;;;4.60;1.33;;;;;;;;;;5052897;28;20024;-57
2023/11/08 01:36:24;;;;;;;2.25;0.60;;;;;;;;;;5052766;28;20025;-58
2023/11/08 01:38:49;;;;;;;1.98;0.60;;;;;;;;;;5070898;28;20100;-58
2023/11/08 01:41:14;;;;;;;1.97;0.63;;;;;;;;;;5058347;28;20060;-58
2023/11/08 01:43:39;;;;;;;1.77;0.67;;;;;;;;;;5062880;28;21678;-58
2023/11/08 01:46:11;;;;;;;2.77;0.70;;;;;;;;;;5055112;28;20078;-57
2023/11/08 01:48:36;;;;;;;2.72;0.73;;;;;;;;;;5042303;28;20017;-58
2023/11/08 01:51:02;;;;;;;2.53;0.70;;;;;;;;;;5063136;28;20037;-57
2023/11/08 01:53:28;;;;;;;3.58;0.80;;;;;;;;;;5053090;28;20416;-60
2023/11/08 01:55:55;;;;;;;2.28;0.70;;;;;;;;;;5052460;28;20034;-59
2023/11/08 01:58:20;;;;;;;2.20;0.60;;;;;;;;;;5054505;28;20009;-58
2023/11/08 02:00:48;;;;;;;4.47;2.22;;;;;;;;;;5049052;28;20535;-58
2023/11/08 02:03:13;;;;;;;3.95;0.70;;;;;;;;;;5052263;28;20436;-60
2023/11/08 02:05:38;;;;;;;3.47;1.42;;;;;;;;;;5054059;28;20024;-57
2023/11/08 02:08:05;;;;;;;4.87;1.33;;;;;;;;;;5067474;28;20025;-58
2023/11/08 02:10:30;;;;;;;4.55;1.23;;;;;;;;;;5069536;28;20476;-59
2023/11/08 02:12:56;;;;;;;6.00;1.00;;;;;;;;;;5051981;28;20033;-58
2023/11/08 02:15:24;;;;;;;3.50;2.88;;;;;;;;;;5063767;28;20044;-59
2023/11/08 02:17:50;;;;;;;2.75;0.63;;;;;;;;;;5050237;28;20028;-57
2023/11/08 02:20:17;;;;;;;3.72;0.70;;;;;;;;;;5051846;28;20748;-58
2023/11/08 02:22:42;;;;;;;4.63;1.85;;;;;;;;;;5059910;28;20024;-59
2023/11/08 02:25:10;;;;;;;3.97;0.80;;;;;;;;;;5052244;28;20044;-57
2023/11/08 02:27:35;;;;;;;4.45;0.68;;;;;;;;;;5063253;28;20025;-58
2023/11/08 02:30:00;;;;;;;2.83;0.70;;;;;;;;;;5060496;28;20020;-59
2023/11/08 02:32:26;;;;;;;4.50;0.93;;;;;;;;;;5056059;28;20483;-58
2023/11/08 02:34:51;;;;;;;4.23;0.90;;;;;;;;;;5056351;28;20078;-58
2023/11/08 02:37:16;;;;;;;3.77;0.70;;;;;;;;;;5060604;28;20059;-60
2023/11/08 02:39:42;;;;;;;4.35;0.70;;;;;;;;;;5063878;28;20055;-59
2023/11/08 02:42:07;;;;;;;3.10;0.80;;;;;;;;;;5065994;28;20024;-57
2023/11/08 02:44:33;;;;;;;2.73;0.70;;;;;;;;;;5073921;28;20033;-58
2023/11/08 02:46:58;;;;;;;3.95;1.45;;;;;;;;;;5057666;28;20029;-58
2023/11/08 02:49:30;;;;;;;4.57;0.87;;;;;;;;;;5050659;28;20033;-59
2023/11/08 02:51:55;;;;;;;;;;;;;;;;;;5053524;28;20028;-58
2023/11/08 02:54:20;;;;;;;4.20;1.27;;;;;;;;;;5053283;28;19991;-58
2023/11/08 02:56:46;;;;;;;4.80;1.63;;;;;;;;;;5055126;28;20518;-58
2023/11/08 02:59:11;;;;;;;3.17;0.70;;;;;;;;;;5073523;28;20027;-58
2023/11/08 03:01:37;;;;;;;5.53;0.80;;;;;;;;;;5069068;28;20025;-59
2023/11/08 03:04:02;;;;;;;4.25;1.00;;;;;;;;;;5061005;28;20036;-58
2023/11/08 03:06:28;;;;;;;3.77;0.70;;;;;;;;;;5059151;28;20024;-59
2023/11/08 03:08:53;;;;;;;5.75;0.93;;;;;;;;;;5062906;28;20031;-57
2023/11/08 03:11:19;;;;;;;3.37;0.80;;;;;;;;;;5060775;28;20029;-58
2023/11/08 03:13:45;;;;;;;4.95;0.80;;;;;;;;;;5037528;28;20430;-59
2023/11/08 03:16:10;;;;;;;5.35;3.42;;;;;;;;;;5054854;28;20039;-58
2023/11/08 03:18:35;;;;;;;3.92;1.10;;;;;;;;;;5051277;28;20430;-58
2023/11/08 03:21:01;;;;;;;7.60;0.93;;;;;;;;;;5057058;28;20032;-58
2023/11/08 03:23:27;;;;;;;5.20;2.45;;;;;;;;;;5060724;28;20089;-58
2023/11/08 03:25:52;;;;;;;4.97;0.88;;;;;;;;;;5054297;28;20021;-57
2023/11/08 03:28:17;;;;;;;3.30;0.70;;;;;;;;;;5058384;28;20021;-57
2023/11/08 03:30:43;;;;;;;3.28;0.75;;;;;;;;;;5052265;28;20029;-59
2023/11/08 03:33:08;;;;;;;3.38;0.70;;;;;;;;;;5069850;28;20020;-59
2023/11/08 03:35:33;;;;;;;4.10;0.50;;;;;;;;;;5054376;28;20025;-57
2023/11/08 03:37:59;;;;;;;6.20;4.83;;;;;;;;;;5067643;28;20028;-57
2023/11/08 03:40:27;;;;;;;3.88;0.68;;;;;;;;;;5059177;28;20016;-58
2023/11/08 03:42:52;;;;;;;4.90;1.52;;;;;;;;;;5058163;28;20013;-58
2023/11/08 03:45:17;;;;;;;3.07;0.70;;;;;;;;;;5065305;28;20016;-59
2023/11/08 03:47:42;;;;;;;4.63;1.13;;;;;;;;;;5058437;28;20052;-59
2023/11/08 03:50:08;;;;;;;4.93;1.30;;;;;;;;;;5072112;28;20032;-59
2023/11/08 03:52:33;;;;;;;4.07;1.77;;;;;;;;;;5060613;28;20029;-59
2023/11/08 03:54:59;;;;;;;6.57;2.90;;;;;;;;;;5062625;28;20020;-58
2023/11/08 03:57:24;;;;;;;8.07;7.40;;;;;;;;;;5066736;28;20036;-59
2023/11/08 03:59:50;;;;;;;4.82;1.00;;;;;;;;;;5055675;28;20021;-60
2023/11/08 04:02:17;;;;;;;2.20;0.73;;;;;;;;;;5057256;28;20029;-58
2023/11/08 04:04:43;;;;;;;15.23;14.10;;;;;;;;;;5076785;28;20021;-59
2023/11/08 04:07:08;;;;;;;8.07;7.15;;;;;;;;;;5065634;28;20024;-57
2023/11/08 04:09:33;;;;;;;5.37;0.70;;;;;;;;;;5065767;28;20114;-57
2023/11/08 04:11:58;;;;;;;4.47;1.83;;;;;;;;;;5074598;28;20111;-57
2023/11/08 04:14:24;;;;;;;3.30;0.73;;;;;;;;;;5076360;28;20031;-60
2023/11/08 04:16:51;;;;;;;3.28;0.90;;;;;;;;;;5057613;28;20025;-59
2023/11/08 04:19:16;;;;;;;5.50;1.10;;;;;;;;;;5061659;28;20020;-58
2023/11/08 04:21:42;;;;;;;6.25;3.35;;;;;;;;;;5062789;28;20568;-58
2023/11/08 04:24:07;;;;;;;8.18;1.95;;;;;;;;;;5055361;28;20027;-58
2023/11/08 04:26:33;;;;;;;4.20;1.70;;;;;;;;;;5061445;28;20511;-58
2023/11/08 04:28:58;;;;;;;16.47;15.23;;;;;;;;;;5069758;28;20029;-59
2023/11/08 04:31:23;;;;;;;4.80;1.40;;;;;;;;;;5060328;28;20029;-59
2023/11/08 04:33:48;;;;;;;18.80;17.55;;;;;;;;;;5057807;28;20489;-60
2023/11/08 04:36:14;;;;;;;5.30;1.00;;;;;;;;;;5062503;28;20032;-57
2023/11/08 04:38:39;;;;;;;10.80;9.80;;;;;;;;;;5068616;28;20027;-59
2023/11/08 04:41:05;;;;;;;7.30;5.95;;;;;;;;;;5060226;28;20029;-59
2023/11/08 04:43:31;;;;;;;7.43;6.70;;;;;;;;;;5056611;28;20103;-58
2023/11/08 04:45:56;;;;;;;6.38;2.70;;;;;;;;;;5054032;28;20055;-58
2023/11/08 04:48:22;;;;;;;5.25;2.42;;;;;;;;;;5053957;28;20106;-57
2023/11/08 04:50:47;;;;;;;12.47;11.50;;;;;;;;;;5052942;28;20021;-58
2023/11/08 04:53:13;;;;;;;4.05;2.08;;;;;;;;;;5067860;28;20028;-58
2023/11/08 04:55:38;;;;;;;11.85;10.73;;;;;;;;;;5063763;28;20013;-58
2023/11/08 04:58:03;;;;;;;6.17;4.83;;;;;;;;;;5057253;28;20518;-58
2023/11/08 05:00:28;;;;;;;5.37;1.03;;;;;;;;;;5069247;28;20016;-58
2023/11/08 05:02:53;;;;;;;3.97;1.57;;;;;;;;;;5064130;28;20040;-57
2023/11/08 05:05:19;;;;;;;4.85;1.52;;;;;;;;;;5068513;28;20028;-58
2023/11/08 05:07:44;;;;;;;5.50;2.25;;;;;;;;;;5059529;28;20021;-58
2023/11/08 05:10:09;;;;;;;5.60;2.23;;;;;;;;;;5061494;28;20013;-59
2023/11/08 05:12:35;;;;;;;3.88;1.83;;;;;;;;;;5057075;28;20510;-58
2023/11/08 05:15:00;;;;;;;3.38;0.73;;;;;;;;;;5052896;28;20024;-58
2023/11/08 05:17:26;;;;;;;4.57;0.95;;;;;;;;;;5053745;28;20036;-58
2023/11/08 05:19:51;;;;;;;7.33;3.03;;;;;;;;;;5067981;28;20016;-59
2023/11/08 05:22:16;;;;;;;7.00;3.80;;;;;;;;;;5051623;28;20028;-58
2023/11/08 05:24:43;;;;;;;3.20;2.73;;;;;;;;;;5052584;28;20404;-60
2023/11/08 05:27:11;;;;;;;7.38;4.85;;;;;;;;;;5061352;28;20357;-57
2023/11/08 05:29:36;;;;;;;12.60;11.70;;;;;;;;;;5067304;28;20392;-60
2023/11/08 05:32:02;;;;;;;8.47;6.93;;;;;;;;;;5067105;28;20020;-57
2023/11/08 05:34:27;;;;;;;15.00;14.00;;;;;;;;;;5064425;28;20392;-58
2023/11/08 05:36:52;;;;;;;25.23;23.53;;;;;;;;;;5071726;28;20515;-58
2023/11/08 05:39:22;;;;;;;4.20;1.53;;;;;;;;;;5059936;28;20028;-58
2023/11/08 05:41:48;;;;;;;4.88;0.85;;;;;;;;;;5053222;28;20029;-57
2023/11/08 05:44:14;;;;;;;5.68;3.38;;;;;;;;;;5061140;28;20254;-58
2023/11/08 05:46:40;;;;;;;5.00;1.40;;;;;;;;;;5056789;28;20009;-58
2023/11/08 05:49:05;;;;;;;11.30;10.50;;;;;;;;;;5057772;28;20032;-57
2023/11/08 05:51:30;;;;;;;9.30;5.67;;;;;;;;;;5050878;28;20608;-58
2023/11/08 05:53:56;;;;;;;8.60;7.80;;;;;;;;;;5041151;28;20082;-57
2023/11/08 05:56:21;;;;;;;3.70;0.80;;;;;;;;;;5047826;28;20027;-58
2023/11/08 05:58:46;;;;;;;18.90;17.53;;;;;;;;;;5061031;28;20032;-58
2023/11/08 06:01:21;;;;;;;28.60;26.67;;;;;;;;;;5047247;28;20029;-59
2023/11/08 06:03:47;;;;;;;4.32;1.98;;;;;;;;;;5048277;28;20055;-58
2023/11/08 06:06:12;;;;;;;1.77;0.70;;;;;;;;;;5047532;28;20052;-57
2023/11/08 06:08:37;;;;;;;5.60;1.77;;;;;;;;;;5046029;28;20083;-58
2023/11/08 06:11:04;;;;;;;6.70;4.30;;;;;;;;;;5046745;28;20451;-59
2023/11/08 06:13:31;;;;;;;8.52;4.20;;;;;;;;;;5047662;28;20091;-59
2023/11/08 06:15:56;;;;;;;6.55;5.82;;;;;;;;;;5045367;28;20035;-57
2023/11/08 06:18:26;;;;;;;10.40;9.63;;;;;;;;;;5048913;28;20028;-57
2023/11/08 06:20:51;;;;;;;8.52;7.82;;;;;;;;;;5050146;28;20020;-58
2023/11/08 06:23:16;;;;;;;4.93;2.37;;;;;;;;;;5044016;28;20064;-59
2023/11/08 06:25:41;;;;;;;39.17;37.08;;;;;;;;;;5042142;28;20013;-58
2023/11/08 06:28:06;;;;;;;6.53;6.03;;;;;;;;;;5047749;28;20029;-61
2023/11/08 06:30:32;;;;;;;6.93;3.13;;;;;;;;;;5049985;28;20511;-58
2023/11/08 06:32:58;;;;;;;12.18;11.38;;;;;;;;;;5051520;28;20029;-60
2023/11/08 06:35:23;;;;;;;4.10;1.10;;;;;;;;;;5047928;28;20032;-60
2023/11/08 06:37:48;;;;;;;4.30;1.80;;;;;;;;;;5046340;28;20496;-58
2023/11/08 06:40:13;;;;;;;4.03;1.00;;;;;;;;;;5051671;28;20032;-60
2023/11/08 06:42:39;;;;;;;2.63;0.70;;;;;;;;;;5051344;28;20029;-58
2023/11/08 06:45:04;;;;;;;9.17;8.37;;;;;;;;;;5051267;28;20020;-60
2023/11/08 06:47:29;;;;;;;9.63;8.93;;;;;;;;;;5051764;28;20519;-58
2023/11/08 06:49:55;;;;;;;16.25;15.13;;;;;;;;;;5049523;28;20078;-59
2023/11/08 06:52:20;;;;;;;9.38;8.65;;;;;;;;;;5048271;28;20124;-59
2023/11/08 06:54:47;;;;;;;8.95;8.18;;;;;;;;;;5047971;28;20477;-60
2023/11/08 06:57:12;;;;;;;5.78;5.28;;;;;;;;;;5051745;28;20596;-60
2023/11/08 06:59:38;;;;;;;14.43;13.30;;;;;;;;;;5051663;28;20048;-59
2023/11/08 07:02:03;;;;;;;17.98;16.92;;;;;;;;;;5051196;28;20029;-59
2023/11/08 07:04:29;;;;;;;5.68;5.10;;;;;;;;;;5052677;28;20131;-59
2023/11/08 07:06:54;;;;;;;4.37;2.23;;;;;;;;;;5046305;28;20036;-59
2023/11/08 07:09:20;;;;;;;6.45;5.00;;;;;;;;;;5041773;28;20025;-59
2023/11/08 07:11:46;;;;;;;4.85;2.50;;;;;;;;;;5044803;28;20029;-59
2023/11/08 07:14:11;;;;;;;6.03;4.50;;;;;;;;;;5042569;28;20018;-61
2023/11/08 07:16:36;;;;;;;5.13;3.97;;;;;;;;;;5049215;28;20143;-59
2023/11/08 07:19:01;;;;;;;12.17;11.27;;;;;;;;;;5050268;28;20390;-58
2023/11/08 07:21:27;;;;;;;7.93;7.33;;;;;;;;;;5046789;28;20029;-58
2023/11/08 07:23:52;;;;;;;2.58;1.42;;;;;;;;;;5049692;28;20024;-57
2023/11/08 07:26:18;;;;;;;10.57;9.83;;;;;;;;;;5049543;28;20051;-58
2023/11/08 07:28:44;;;;;;;14.40;13.35;;;;;;;;;;5042062;28;20021;-57
2023/11/08 07:31:09;;;;;;;19.23;18.05;;;;;;;;;;5046955;28;20029;-59
2023/11/08 07:33:37;;;;;;;6.23;5.33;;;;;;;;;;5040822;28;20105;-60
2023/11/08 07:36:03;;;;;;;8.82;8.13;;;;;;;;;;5049327;28;20837;-58
2023/11/08 07:38:28;;;;;;;3.53;3.22;;;;;;;;;;5047576;28;20033;-60
2023/11/08 07:40:54;;;;;;;6.80;6.35;;;;;;;;;;5048483;28;20005;-61
2023/11/08 07:43:19;;;;;;;12.60;11.73;;;;;;;;;;5047670;28;20016;-60
2023/11/08 07:45:48;;;;;;;7.10;6.50;;;;;;;;;;5045618;28;20100;-60
2023/11/08 07:48:13;;;;;;;9.32;8.65;;;;;;;;;;5049195;28;20020;-60
2023/11/08 07:50:38;;;;;;;4.70;4.13;;;;;;;;;;5058076;28;20496;-60
2023/11/08 07:53:04;;;;;;;11.93;11.13;;;;;;;;;;5050604;28;20032;-58
2023/11/08 07:55:29;;;;;;;11.05;10.23;;;;;;;;;;5053771;28;20097;-58
2023/11/08 07:57:54;;;;;;;15.53;14.50;;;;;;;;;;5050233;28;20017;-57
2023/11/08 08:00:22;;;;;;;10.60;9.67;;;;;;;;;;5050064;28;20082;-58
2023/11/08 08:02:48;;;;;;;6.78;6.18;;;;;;;;;;5051281;28;20488;-59
2023/11/08 08:05:13;;;;;;;4.32;3.40;;;;;;;;;;5054552;28;20039;-58
2023/11/08 08:07:38;;;;;;;8.23;7.60;;;;;;;;;;5059787;28;20094;-61
2023/11/08 08:10:06;;;;;;;21.07;19.87;;;;;;;;;;5053385;28;20013;-59
2023/11/08 08:12:32;;;;;;;37.10;35.00;;;;;;;;;;5045691;28;20039;-59
2023/11/08 08:14:57;;;;;;;18.10;16.80;;;;;;;;;;5036028;28;20067;-59
2023/11/08 08:17:22;;;;;;;2.97;2.50;;;;;;;;;;5048492;28;20044;-59
2023/11/08 08:19:47;;;;;;;17.63;16.55;;;;;;;;;;5049842;28;20013;-58
2023/11/08 08:22:14;;;;;;;5.63;5.13;;;;;;;;;;5049433;28;20013;-59
2023/11/08 08:24:39;;;;;;;;;;;;;;;;;;5054433;28;20015;-59
2023/11/08 08:27:04;;;;;;;14.73;13.82;;;;;;;;;;5054089;28;19995;-59
2023/11/08 08:29:29;;;;;;;9.45;8.65;;;;;;;;;;5053596;28;20029;-59
2023/11/08 08:31:54;;;;;;;7.17;6.47;;;;;;;;;;5053536;28;20021;-59
2023/11/08 08:34:19;;;;;;;3.50;3.17;;;;;;;;;;5053279;28;20025;-59
2023/11/08 08:36:45;;;;;;;4.63;3.90;;;;;;;;;;5053764;28;20052;-58
2023/11/08 08:39:10;;;;;;;8.80;7.93;;;;;;;;;;5053251;28;20040;-58
2023/11/08 08:41:36;;;;;;;27.92;26.35;;;;;;;;;;5054990;28;20121;-57
2023/11/08 08:44:01;;;;;;;25.73;24.20;;;;;;;;;;5058320;28;20017;-58
2023/11/08 08:46:28;;;;;;;3.57;0.87;;;;;;;;;;5060496;28;20020;-58
2023/11/08 08:48:53;;;;;;;37.38;35.28;;;;;;;;;;5059610;28;20055;-57
2023/11/08 08:51:18;;;;;;;26.10;24.67;;;;;;;;;;5069842;28;20434;-58
2023/11/08 08:53:44;;;;;;;15.20;14.17;;;;;;;;;;5067047;28;20021;-58
2023/11/08 08:56:10;;;;;;;54.22;51.22;;;;;;;;;;5059461;28;20473;-57
2023/11/08 08:58:35;;;;;;;9.15;8.45;;;;;;;;;;5046643;28;20040;-57
2023/11/08 09:01:00;;;;;;;28.92;27.35;;;;;;;;;;5054273;28;20025;-59
2023/11/08 09:03:26;;;;;;;6.30;5.77;;;;;;;;;;5055525;28;20124;-59
2023/11/08 09:05:51;;;;;;;10.98;10.07;;;;;;;;;;5057168;28;20460;-60
2023/11/08 09:08:16;;;;;;;10.93;10.13;;;;;;;;;;5057949;28;20516;-59
2023/11/08 09:10:41;;;;;;;10.50;6.47;;;;;;;;;;5050504;28;20075;-58
2023/11/08 09:13:07;;;;;;;3.08;0.73;;;;;;;;;;5052247;28;20025;-59
2023/11/08 09:15:32;;;;;;;17.95;16.73;;;;;;;;;;5052440;28;20025;-58
2023/11/08 09:17:57;;;;;;;13.40;12.47;;;;;;;;;;5045577;28;20493;-58
2023/11/08 09:20:22;;;;;;;5.17;1.70;;;;;;;;;;5050101;28;20033;-58
2023/11/08 09:22:48;;;;;;;12.80;11.97;;;;;;;;;;5046526;28;20827;-57
2023/11/08 09:25:14;;;;;;;4.55;1.55;;;;;;;;;;5044416;28;20049;-59
2023/11/08 09:27:40;;;;;;;12.80;11.80;;;;;;;;;;5053069;28;20171;-59
2023/11/08 09:30:07;;;;;;;20.45;19.00;;;;;;;;;;5051140;28;20441;-60
2023/11/08 09:32:32;;;;;;;4.53;2.58;;;;;;;;;;5044925;28;20453;-58
2023/11/08 09:34:57;;;;;;;8.20;7.57;;;;;;;;;;5051089;28;20101;-60
2023/11/08 09:37:22;;;;;;;12.88;11.80;;;;;;;;;;5049546;28;20032;-58
2023/11/08 09:39:49;;;;;;;10.93;10.07;;;;;;;;;;5032508;28;20013;-59
2023/11/08 09:42:15;;;;;;;9.68;8.98;;;;;;;;;;5049630;28;20052;-60
2023/11/08 09:44:41;;;;;;;25.08;23.40;;;;;;;;;;5051864;28;20503;-57
2023/11/08 09:47:07;;;;;;;23.50;21.98;;;;;;;;;;5051723;28;20013;-58
2023/11/08 09:49:33;;;;;;;14.20;13.30;;;;;;;;;;5042222;28;20024;-60
2023/11/08 09:51:58;;;;;;;16.63;15.40;;;;;;;;;;5048474;28;20828;-59
2023/11/08 09:54:23;;;;;;;4.67;0.83;;;;;;;;;;5048886;28;20032;-58
2023/11/08 09:56:48;;;;;;;17.97;16.63;;;;;;;;;;5046131;28;20021;-58
2023/11/08 09:59:15;;;;;;;4.93;2.03;;;;;;;;;;5051842;28;20035;-59
2023/11/08 10:01:41;;;;;;;35.17;33.20;;;;;;;;;;5046303;28;20212;-60
2023/11/08 10:04:10;;;;;;;21.38;20.02;;;;;;;;;;5051477;28;20021;-60
2023/11/08 10:06:35;;;;;;;3.45;2.17;;;;;;;;;;5047468;28;20013;-60
2023/11/08 10:09:00;;;;;;;38.87;36.73;;;;;;;;;;5051748;28;20019;-57
2023/11/08 10:11:28;;;;;;;3.23;1.20;;;;;;;;;;5051512;28;20029;-60
2023/11/08 10:13:54;;;;;;;18.23;16.83;;;;;;;;;;5051431;28;20036;-59
2023/11/08 10:16:20;;;;;;;10.57;9.67;;;;;;;;;;5051686;28;20048;-59
2023/11/08 10:18:55;;;;;;;7.20;6.55;;;;;;;;;;5052260;28;20025;-60
2023/11/08 10:21:22;;;;;;;9.45;8.70;;;;;;;;;;5051709;28;20029;-60
2023/11/08 10:23:50;;;;;;;80.97;76.22;;;;;;;;;;5052470;28;20013;-59
2023/11/08 10:26:22;;;;;;;19.55;17.98;;;;;;;;;;5052805;28;20017;-59
2023/11/08 10:29:05;;;;;;;20.00;18.85;;;;;;;;;;5057669;28;20078;-60
2023/11/08 10:31:31;;;;;;;5.15;4.05;;;;;;;;;;5054254;28;20060;-60
2023/11/08 10:33:57;;;;;;;17.75;16.48;;;;;;;;;;5056709;28;20009;-60
2023/11/08 10:36:23;;;;;;;9.43;8.50;;;;;;;;;;5051526;28;20021;-58
2023/11/08 10:38:48;;;;;;;4.35;2.83;;;;;;;;;;5051683;28;20029;-59
2023/11/08 10:41:14;;;;;;;4.37;2.30;;;;;;;;;;5051981;28;20028;-59
2023/11/08 10:43:39;;;;;;;5.20;2.30;;;;;;;;;;5052387;28;20430;-58
2023/11/08 10:46:06;;;;;;;28.37;26.57;;;;;;;;;;5049832;28;20016;-59
2023/11/08 10:48:31;;;;;;;5.50;4.22;;;;;;;;;;5051353;28;20017;-61
2023/11/08 10:50:56;;;;;;;49.10;46.33;;;;;;;;;;5050683;28;20024;-59
2023/11/08 10:53:21;;;;;;;20.93;19.50;;;;;;;;;;5050414;28;20382;-58
2023/11/08 10:55:47;;;;;;;9.83;9.13;;;;;;;;;;5051405;28;20389;-60
2023/11/08 10:58:13;;;;;;;4.23;2.50;;;;;;;;;;5051973;28;20025;-59
2023/11/08 11:00:38;;;;;;;6.43;4.45;;;;;;;;;;5051122;28;20466;-59
2023/11/08 11:03:12;;;;;;;10.57;9.57;;;;;;;;;;5056257;28;20050;-60
2023/11/08 11:05:41;;;;;;;56.88;53.88;;;;;;;;;;5048403;28;20024;-60
2023/11/08 11:08:06;;;;;;;3.80;2.33;;;;;;;;;;5050414;28;20024;-58
2023/11/08 11:10:32;;;;;;;3.03;0.60;;;;;;;;;;5048333;28;20465;-60
2023/11/08 11:13:11;;;;;;;11.73;10.80;;;;;;;;;;5050682;28;20044;-58
2023/11/08 11:15:42;;;;;;;30.05;28.33;;;;;;;;;;5042882;28;20076;-59
2023/11/08 11:18:14;;;;;;;4.90;4.43;;;;;;;;;;5043831;28;20017;-60
2023/11/08 11:20:43;;;;;;;17.25;16.13;;;;;;;;;;5050639;28;20017;-60
2023/11/08 11:23:27;;;;;;;11.30;10.55;;;;;;;;;;5051352;28;20017;-59
2023/11/08 11:25:52;;;;;;;6.13;5.50;;;;;;;;;;5044949;28;20051;-58
2023/11/08 11:28:46;;;;;;;14.10;13.10;;;;;;;;;;5050480;28;20107;-58
2023/11/08 11:31:29;;;;;;;17.17;16.08;;;;;;;;;;5050527;28;20024;-58
2023/11/08 11:33:54;;;;;;;13.88;12.85;;;;;;;;;;5051161;28;20017;-60
2023/11/08 11:36:19;;;;;;;4.88;1.23;;;;;;;;;;5050052;28;20074;-59
2023/11/08 11:38:44;;;;;;;18.67;17.47;;;;;;;;;;5049237;28;20024;-59
2023/11/08 11:41:20;;;;;;;33.50;31.63;;;;;;;;;;5049694;28;20017;-59
2023/11/08 11:43:46;;;;;;;26.45;24.85;;;;;;;;;;5050948;28;20384;-59
2023/11/08 11:46:16;;;;;;;3.97;1.23;;;;;;;;;;5050562;28;20469;-59
2023/11/08 11:48:43;;;;;;;23.58;22.17;;;;;;;;;;5054219;28;20028;-58
2023/11/08 11:51:08;;;;;;;9.88;9.10;;;;;;;;;;5054779;28;20009;-59
2023/11/08 11:53:34;;;;;;;6.80;6.18;;;;;;;;;;5051512;28;20505;-59
2023/11/08 11:56:05;;;;;;;8.73;8.02;;;;;;;;;;5054839;28;20020;-59
2023/11/08 11:58:31;;;;;;;5.07;4.53;;;;;;;;;;5059527;28;20096;-58
2023/11/08 12:00:57;;;;;;;37.65;35.38;;;;;;;;;;5054870;28;20390;-60
2023/11/08 12:03:22;;;;;;;3.33;1.45;;;;;;;;;;5054219;28;20130;-58
2023/11/08 12:05:47;;;;;;;72.82;68.82;;;;;;;;;;5054217;28;20469;-59
2023/11/08 12:08:13;;;;;;;3.30;1.03;;;;;;;;;;5054072;28;20028;-58
2023/11/08 12:10:38;;;;;;;2.83;0.82;;;;;;;;;;5054344;28;20438;-60
2023/11/08 12:13:03;;;;;;;51.67;49.03;;;;;;;;;;5054219;28;20025;-58
2023/11/08 12:15:31;;;;;;;4.13;1.17;;;;;;;;;;5054283;28;20021;-58
2023/11/08 12:17:58;;;;;;;40.38;38.25;;;;;;;;;;5054239;28;20028;-59
2023/11/08 12:20:26;;;;;;;23.92;21.58;;;;;;;;;;5051970;28;20488;-59
2023/11/08 12:22:52;;;;;;;21.02;19.77;;;;;;;;;;5048850;28;20028;-59
2023/11/08 12:25:18;;;;;;;6.22;1.92;;;;;;;;;;5049895;28;20013;-59
2023/11/08 12:27:44;;;;;;;;;;;;;;;;;;5054499;28;20035;-59
2023/11/08 12:30:09;;;;;;;8.80;7.70;;;;;;;;;;5053111;28;19911;-59
2023/11/08 12:32:34;;;;;;;11.05;10.35;;;;;;;;;;5053800;28;20025;-58
2023/11/08 12:35:01;;;;;;;12.27;11.27;;;;;;;;;;5049476;28;20025;-59
2023/11/08 12:37:27;;;;;;;4.18;0.73;;;;;;;;;;5052857;28;20527;-60
2023/11/08 12:40:12;;;;;;;11.13;10.40;;;;;;;;;;5047810;28;20096;-58
2023/11/08 12:42:37;;;;;;;16.55;15.55;;;;;;;;;;5045604;28;20448;-59
2023/11/08 12:45:03;;;;;;;58.95;55.90;;;;;;;;;;5050886;28;20080;-60
2023/11/08 12:47:28;;;;;;;8.07;6.53;;;;;;;;;;5047952;28;20036;-58
2023/11/08 12:49:53;;;;;;;80.13;75.80;;;;;;;;;;5048767;28;20071;-58
2023/11/08 12:52:20;;;;;;;3.90;2.53;;;;;;;;;;5050198;28;20036;-59
2023/11/08 12:54:46;;;;;;;5.70;4.75;;;;;;;;;;5042036;28;20025;-60
2023/11/08 12:57:23;;;;;;;10.27;9.57;;;;;;;;;;5042202;28;20355;-58
2023/11/08 12:59:48;;;;;;;28.20;26.70;;;;;;;;;;5052795;28;20596;-58
2023/11/08 13:02:18;;;;;;;11.27;10.40;;;;;;;;;;5053579;28;20112;-59
2023/11/08 13:04:45;;;;;;;28.63;27.02;;;;;;;;;;5051721;28;20028;-59
2023/11/08 13:07:10;;;;;;;7.75;5.93;;;;;;;;;;5045670;28;20027;-59
2023/11/08 13:09:35;;;;;;;5.83;4.43;;;;;;;;;;5050139;28;20013;-59
2023/11/08 13:12:02;;;;;;;12.45;11.52;;;;;;;;;;5047116;28;20098;-59
2023/11/08 13:14:27;;;;;;;;;;;;;;;;;;5045021;28;20104;-59
2023/11/08 13:16:52;;;;;;;4.10;2.58;;;;;;;;;;5047775;28;19941;-58
2023/11/08 13:19:18;;;;;;;7.65;6.22;;;;;;;;;;5049418;28;20355;-59
2023/11/08 13:21:43;;;;;;;8.52;7.88;;;;;;;;;;5043724;28;20033;-59
2023/11/08 13:24:08;;;;;;;7.97;7.30;;;;;;;;;;5050964;28;20075;-57
2023/11/08 13:26:34;;;;;;;3.20;2.58;;;;;;;;;;5048950;28;20024;-58
2023/11/08 13:28:59;;;;;;;14.75;13.75;;;;;;;;;;5050071;28;20103;-60
2023/11/08 13:31:24;;;;;;;27.67;26.10;;;;;;;;;;5049595;28;20060;-57
2023/11/08 13:33:50;;;;;;;34.25;32.35;;;;;;;;;;5050724;28;20013;-60
2023/11/08 13:36:16;;;;;;;26.63;25.15;;;;;;;;;;5032716;28;20388;-59
2023/11/08 13:38:42;;;;;;;19.52;18.30;;;;;;;;;;5052634;28;20048;-60
2023/11/08 13:41:07;;;;;;;11.43;10.50;;;;;;;;;;5052637;28;20100;-58
2023/11/08 13:43:33;;;;;;;15.80;14.82;;;;;;;;;;5051651;28;20461;-58
2023/11/08 13:46:00;;;;;;;5.88;2.65;;;;;;;;;;5052443;28;20024;-59
2023/11/08 13:48:26;;;;;;;7.88;5.90;;;;;;;;;;5052458;28;20017;-58
2023/11/08 13:50:51;;;;;;;5.65;3.40;;;;;;;;;;5052252;28;20028;-58
2023/11/08 13:53:17;;;;;;;11.77;9.00;;;;;;;;;;5050877;28;20032;-59
2023/11/08 13:55:42;;;;;;;33.35;15.40;;;;;;;;;;5052372;28;20468;-60
2023/11/08 13:58:08;;;;;;;37.47;34.63;;;;;;;;;;5057864;28;20028;-58
2023/11/08 14:00:33;;;;;;;43.90;41.37;;;;;;;;;;5055828;28;20033;-59
2023/11/08 14:02:59;;;;;;;49.20;46.60;;;;;;;;;;5054475;28;20013;-60
2023/11/08 14:05:24;;;;;;;7.28;6.57;;;;;;;;;;5052655;28;20036;-58
2023/11/08 14:07:50;;;;;;;32.30;30.33;;;;;;;;;;5049942;28;20019;-59
2023/11/08 14:10:15;;;;;;;12.30;11.38;;;;;;;;;;5051728;28;20112;-58
2023/11/08 14:12:40;;;;;;;9.03;8.20;;;;;;;;;;5052131;28;20116;-58
2023/11/08 14:15:10;;;;;;;9.57;8.73;;;;;;;;;;5049932;28;20386;-60
2023/11/08 14:17:35;;;;;;;4.13;2.17;;;;;;;;;;5051895;28;20053;-60
2023/11/08 14:20:01;;;;;;;16.23;15.20;;;;;;;;;;5051698;28;20064;-60
2023/11/08 14:22:26;;;;;;;23.17;21.80;;;;;;;;;;5049986;28;20013;-60
2023/11/08 14:24:51;;;;;;;4.57;3.27;;;;;;;;;;5052012;28;20436;-59
2023/11/08 14:27:18;;;;;;;10.73;9.93;;;;;;;;;;5050889;28;20032;-58
2023/11/08 14:29:43;;;;;;;;;;;;;;;;;;5052076;28;20063;-59